Main page
METAR-TAF:

METAR-TAF

Airports :

Libreville International Airport

Libreville, Gabon

latitude: 00-27N, longitude: 009-25E, elevation: 12 m

Current weather observation

The report was made 23 minutes ago, at 08:30 UTC
Wind 4 kt from the East
Temperature 27°C
Humidity 84%
Pressure 1011 hPa
Visibility 10 km or more
Few clouds at a height of 1300 ft

METAR: FOOL 210830Z 09004KT 9999 FEW013 27/24 Q1011 NOSIG

Time: 09:53 (08:53 UTC)

Forecast

The report was made 3 hours and 53 minutes ago, at 05:00 UTC
Forecast valid from 21 at 06 UTC to 22 at 12 UTC
Wind 6 kt from the East/Southeast
Visibility 10 km or more
Few clouds at a height of 1200 ft
Becoming
from 21 at 09 UTC to 21 at 12 UTC
Scattered clouds at a height of 1000 ft
Few clouds at a height of 2000 ft, Cumulonimbus.
Temporary
from 21 at 14 UTC to 21 at 19 UTC
thunderstorm

TAF: FOOL 210500Z 2106/2212 12006KT 9999 FEW012 BECMG 2109/2112 SCT010 FEW020CB TEMPO 2114/2119 TS

Weather observations and forecasts of more than 4000 airports (METAR and TAF reports).

The available stations are represented by yellow and red dots on the map.

Hover mouse over dot to see the name of the station.

Then click to see weather observations and forecasts.

To change the map : click on the green buttons with a black cross to zoom in, on the green button with a dash to zoom out, or on the green arrows for adjacent maps.


METAR-TAF: